Terminal Aerodrome Forecast
Issued by NWS

Home | Current Version | Previous Version | Text Only | Print | Product List | Glossary On
Versions: 1 2 3 4 5 6 7 8 9 10 11 12 13 14 15 16 17 18 19 20 21 22
000
FTUS43 KDLH 302131 AAB
TAFHYR
TAF AMD
KHYR 302131Z 3022/3118 28009KT P6SM VCTS SCT050CB
     FM310100 27008KT P6SM SCT060
     FM311600 28008G17KT P6SM FEW070=

USA.gov is the U.S. government's official web portal to all federal, state and local government web resources and services.